Time,TemperatureF,DewpointF,PressureIn,WindDirection,WindDirectionDegrees,WindSpeedMPH,WindSpeedGustMPH,Humidity,HourlyPrecipIn,Conditions,Clouds,dailyrainin,SoftwareType,DateUTC
2013-05-10 00:01:00,61.0,41.0,30.27,SW,225,1.0,3.0,48,0.00,,,0.00,,2013-05-10 07:01:00,
2013-05-10 00:11:00,61.0,41.0,30.27,SW,225,1.0,3.0,48,0.00,,,0.00,,2013-05-10 07:11:00,
2013-05-10 00:22:00,60.0,41.0,30.28,WSW,248,1.0,1.0,49,0.00,,,0.00,,2013-05-10 07:22:00,
2013-05-10 00:31:00,59.0,42.0,30.28,SSW,203,0.0,1.0,54,0.00,,,0.00,,2013-05-10 07:31:00,
2013-05-10 00:42:00,59.0,42.0,30.28,SSW,203,0.0,1.0,54,0.00,,,0.00,,2013-05-10 07:42:00,
2013-05-10 00:52:00,59.0,42.0,30.28,SSW,203,0.0,1.0,54,0.00,,,0.00,,2013-05-10 07:52:00,
2013-05-10 01:02:00,59.0,43.0,30.28,West,261,1.0,1.0,55,0.00,,,0.00,,2013-05-10 08:02:00,
2013-05-10 01:12:00,59.0,43.0,30.28,West,261,1.0,1.0,55,0.00,,,0.00,,2013-05-10 08:12:00,
2013-05-10 01:21:00,59.0,43.0,30.28,West,261,1.0,1.0,55,0.00,,,0.00,,2013-05-10 08:21:00,
2013-05-10 01:32:00,57.0,43.0,30.27,WSW,248,0.0,1.0,60,0.00,,,0.00,,2013-05-10 08:32:00,
2013-05-10 01:42:00,57.0,43.0,30.27,WSW,248,0.0,1.0,60,0.00,,,0.00,,2013-05-10 08:42:00,
2013-05-10 01:52:00,57.0,43.0,30.27,West,270,2.0,4.0,60,0.00,,,0.00,,2013-05-10 08:52:00,
2013-05-10 02:01:00,57.0,43.0,30.27,WSW,246,0.0,4.0,59,0.00,,,0.00,,2013-05-10 09:01:00,
2013-05-10 02:11:00,57.0,43.0,30.27,WSW,246,0.0,4.0,59,0.00,,,0.00,,2013-05-10 09:11:00,
2013-05-10 02:21:00,56.0,43.0,30.27,WSW,248,0.0,3.0,62,0.00,,,0.00,,2013-05-10 09:21:00,
2013-05-10 02:32:00,56.0,44.0,30.27,West,270,2.0,2.0,63,0.00,,,0.00,,2013-05-10 09:32:00,
2013-05-10 02:42:00,56.0,44.0,30.27,West,270,2.0,2.0,63,0.00,,,0.00,,2013-05-10 09:42:00,
2013-05-10 02:52:00,55.0,43.0,30.27,West,261,1.0,2.0,64,0.00,,,0.00,,2013-05-10 09:52:00,
2013-05-10 03:02:00,55.0,43.0,30.27,WSW,238,1.0,1.0,64,0.00,,,0.00,,2013-05-10 10:02:00,
2013-05-10 03:12:00,55.0,43.0,30.27,WSW,238,1.0,1.0,64,0.00,,,0.00,,2013-05-10 10:12:00,
2013-05-10 03:23:00,55.0,43.0,30.27,WSW,238,1.0,1.0,64,0.00,,,0.00,,2013-05-10 10:23:00,
2013-05-10 03:32:00,54.0,43.0,30.28,WSW,256,1.0,2.0,66,0.00,,,0.00,,2013-05-10 10:32:00,
2013-05-10 03:42:00,54.0,43.0,30.28,WSW,256,1.0,2.0,66,0.00,,,0.00,,2013-05-10 10:42:00,
2013-05-10 03:52:00,54.0,43.0,30.28,West,261,1.0,2.0,66,0.00,,,0.00,,2013-05-10 10:52:00,
2013-05-10 04:02:00,54.0,43.0,30.28,NE,45,0.0,2.0,65,0.00,,,0.00,,2013-05-10 11:02:00,
2013-05-10 04:12:00,54.0,43.0,30.28,NE,45,0.0,2.0,65,0.00,,,0.00,,2013-05-10 11:12:00,
2013-05-10 04:21:00,54.0,43.0,30.28,NE,45,0.0,2.0,65,0.00,,,0.00,,2013-05-10 11:21:00,
2013-05-10 04:32:00,53.0,42.0,30.28,WSW,248,0.0,0.0,66,0.00,,,0.00,,2013-05-10 11:32:00,
2013-05-10 04:42:00,53.0,42.0,30.28,WSW,248,0.0,0.0,66,0.00,,,0.00,,2013-05-10 11:42:00,
2013-05-10 04:51:00,52.0,42.0,30.28,WSW,248,0.0,0.0,68,0.00,,,0.00,,2013-05-10 11:51:00,
2013-05-10 05:01:00,51.0,41.0,30.28,West,272,1.0,1.0,69,0.00,,,0.00,,2013-05-10 12:01:00,
2013-05-10 05:11:00,51.0,41.0,30.28,West,272,1.0,1.0,69,0.00,,,0.00,,2013-05-10 12:11:00,
2013-05-10 05:21:00,52.0,42.0,30.28,West,270,0.0,1.0,68,0.00,,,0.00,,2013-05-10 12:21:00,
2013-05-10 05:32:00,51.0,41.0,30.29,WSW,248,1.0,1.0,69,0.00,,,0.00,,2013-05-10 12:32:00,
2013-05-10 05:41:00,51.0,41.0,30.29,WSW,248,1.0,1.0,69,0.00,,,0.00,,2013-05-10 12:41:00,
2013-05-10 05:51:00,51.0,41.0,30.29,WSW,248,0.0,1.0,69,0.00,,,0.00,,2013-05-10 12:51:00,
2013-05-10 06:01:00,51.0,41.0,30.29,West,262,1.0,2.0,69,0.00,,,0.00,,2013-05-10 13:01:00,
2013-05-10 06:11:00,51.0,41.0,30.29,West,262,1.0,2.0,69,0.00,,,0.00,,2013-05-10 13:11:00,
2013-05-10 06:21:00,51.0,41.0,30.29,West,262,1.0,2.0,69,0.00,,,0.00,,2013-05-10 13:21:00,
2013-05-10 06:31:00,51.0,42.0,30.31,West,263,1.0,2.0,70,0.00,,,0.00,,2013-05-10 13:31:00,
2013-05-10 06:41:00,51.0,42.0,30.31,West,263,1.0,2.0,70,0.00,,,0.00,,2013-05-10 13:41:00,
2013-05-10 06:52:00,51.0,42.0,30.31,WSW,257,1.0,2.0,70,0.00,,,0.00,,2013-05-10 13:52:00,
2013-05-10 07:02:00,51.0,42.0,30.31,West,270,2.0,3.0,71,0.00,,,0.00,,2013-05-10 14:02:00,
2013-05-10 07:11:00,51.0,42.0,30.31,West,270,2.0,3.0,71,0.00,,,0.00,,2013-05-10 14:11:00,
2013-05-10 07:21:00,51.0,42.0,30.31,West,270,2.0,3.0,71,0.00,,,0.00,,2013-05-10 14:21:00,
2013-05-10 07:32:00,53.0,43.0,30.31,West,260,1.0,2.0,70,0.00,,,0.00,,2013-05-10 14:32:00,
2013-05-10 07:42:00,53.0,43.0,30.31,West,260,1.0,2.0,70,0.00,,,0.00,,2013-05-10 14:42:00,
2013-05-10 07:52:00,53.0,43.0,30.31,West,260,1.0,2.0,70,0.00,,,0.00,,2013-05-10 14:52:00,
2013-05-10 08:01:00,56.0,45.0,30.31,West,259,2.0,2.0,67,0.00,,,0.00,,2013-05-10 15:01:00,
2013-05-10 08:20:00,-999.0,-99.9,30.31,West,259,2.0,2.0,67,0.00,,,0.00,,2013-05-10 15:20:00,
2013-05-10 08:32:00,60.0,46.0,30.31,SSW,204,0.0,2.0,60,0.00,,,0.00,,2013-05-10 15:32:00,
2013-05-10 08:42:00,61.0,46.0,30.31,SSW,203,1.0,3.0,57,0.00,,,0.00,,2013-05-10 15:42:00,
2013-05-10 08:52:00,61.0,46.0,30.31,SSW,203,1.0,3.0,57,0.00,,,0.00,,2013-05-10 15:52:00,
2013-05-10 09:02:00,63.0,47.0,30.32,ESE,116,1.0,1.0,56,0.00,,,0.00,,2013-05-10 16:02:00,
2013-05-10 09:12:00,63.0,47.0,30.32,ESE,116,1.0,1.0,56,0.00,,,0.00,,2013-05-10 16:12:00,
2013-05-10 09:23:00,67.0,49.0,30.32,East,84,1.0,3.0,53,0.00,,,0.00,,2013-05-10 16:23:00,
2013-05-10 09:32:00,67.0,47.0,30.32,ESE,113,0.0,2.0,49,0.00,,,0.00,,2013-05-10 16:32:00,
2013-05-10 09:42:00,67.0,47.0,30.32,ESE,113,0.0,2.0,49,0.00,,,0.00,,2013-05-10 16:42:00,
2013-05-10 09:52:00,67.0,47.0,30.32,ESE,113,0.0,2.0,49,0.00,,,0.00,,2013-05-10 16:52:00,
2013-05-10 10:02:00,72.0,49.0,30.32,East,90,1.0,3.0,45,0.00,,,0.00,,2013-05-10 17:02:00,
2013-05-10 10:32:00,75.0,49.0,30.33,NE,52,2.0,2.0,40,0.00,,,0.00,,2013-05-10 17:32:00,
2013-05-10 11:10:00,-999.0,-99.9,30.32,NE,46,1.0,2.0,34,0.00,,,0.00,,2013-05-10 18:10:00,
2013-05-10 11:21:00,77.0,46.0,30.32,NE,46,1.0,2.0,34,0.00,,,0.00,,2013-05-10 18:21:00,
2013-05-10 11:34:00,77.0,46.0,30.32,NE,46,1.0,2.0,34,0.00,,,0.00,,2013-05-10 18:34:00,
2013-05-10 11:43:00,77.0,46.0,30.32,NE,46,1.0,2.0,34,0.00,,,0.00,,2013-05-10 18:43:00,
2013-05-10 12:02:00,78.0,43.0,30.31,NE,55,3.0,4.0,29,0.00,,,0.00,,2013-05-10 19:02:00,
2013-05-10 12:11:00,78.0,43.0,30.31,NE,55,3.0,4.0,29,0.00,,,0.00,,2013-05-10 19:11:00,
2013-05-10 12:21:00,78.0,43.0,30.31,NW,311,3.0,4.0,29,0.00,,,0.00,,2013-05-10 19:21:00,
2013-05-10 12:32:00,78.0,43.0,30.31,NW,311,3.0,4.0,29,0.00,,,0.00,,2013-05-10 19:32:00,
2013-05-10 12:42:00,78.0,43.0,30.31,NW,311,3.0,4.0,29,0.00,,,0.00,,2013-05-10 19:42:00,
2013-05-10 13:01:00,80.0,40.0,30.30,WNW,300,3.0,3.0,24,0.00,,,0.00,,2013-05-10 20:01:00,
2013-05-10 13:11:00,80.0,40.0,30.30,WNW,300,3.0,3.0,24,0.00,,,0.00,,2013-05-10 20:11:00,
2013-05-10 13:21:00,81.0,45.0,30.30,SSE,158,2.0,3.0,28,0.00,,,0.00,,2013-05-10 20:21:00,
2013-05-10 13:31:00,82.0,44.0,30.30,SSE,168,1.0,2.0,26,0.00,,,0.00,,2013-05-10 20:31:00,
2013-05-10 13:41:00,82.0,44.0,30.30,SSE,168,1.0,2.0,26,0.00,,,0.00,,2013-05-10 20:41:00,
2013-05-10 13:52:00,82.0,44.0,30.30,SSE,168,1.0,2.0,26,0.00,,,0.00,,2013-05-10 20:52:00,
2013-05-10 14:01:00,82.0,44.0,30.30,SSE,168,1.0,2.0,26,0.00,,,0.00,,2013-05-10 21:01:00,
2013-05-10 14:25:00,81.0,40.0,30.29,East,82,2.0,3.0,23,0.00,,,0.00,,2013-05-10 21:25:00,
2013-05-10 14:32:00,81.0,40.0,30.29,East,82,2.0,3.0,23,0.00,,,0.00,,2013-05-10 21:32:00,
2013-05-10 14:43:00,81.0,40.0,30.29,East,82,2.0,3.0,23,0.00,,,0.00,,2013-05-10 21:43:00,
2013-05-10 14:52:00,81.0,40.0,30.29,East,82,2.0,3.0,23,0.00,,,0.00,,2013-05-10 21:52:00,
2013-05-10 15:02:00,83.0,41.0,30.29,ENE,63,1.0,4.0,23,0.00,,,0.00,,2013-05-10 22:02:00,
2013-05-10 15:12:00,83.0,41.0,30.29,ENE,63,1.0,4.0,23,0.00,,,0.00,,2013-05-10 22:12:00,
2013-05-10 15:22:00,83.0,41.0,30.29,ENE,63,1.0,4.0,23,0.00,,,0.00,,2013-05-10 22:22:00,
2013-05-10 15:32:00,83.0,41.0,30.29,ENE,63,1.0,4.0,23,0.00,,,0.00,,2013-05-10 22:32:00,
2013-05-10 15:52:00,81.0,39.0,30.28,WSW,246,1.0,3.0,22,0.00,,,0.00,,2013-05-10 22:52:00,
2013-05-10 16:02:00,81.0,39.0,30.28,WSW,246,1.0,3.0,22,0.00,,,0.00,,2013-05-10 23:02:00,
2013-05-10 16:12:00,81.0,39.0,30.28,WSW,246,1.0,3.0,22,0.00,,,0.00,,2013-05-10 23:12:00,
2013-05-10 16:22:00,80.0,39.0,30.27,SW,215,1.0,2.0,23,0.00,,,0.00,,2013-05-10 23:22:00,
2013-05-10 16:33:00,80.0,40.0,30.27,ENE,59,1.0,2.0,24,0.00,,,0.00,,2013-05-10 23:33:00,
2013-05-10 16:42:00,80.0,40.0,30.27,ENE,59,1.0,2.0,24,0.00,,,0.00,,2013-05-10 23:42:00,
2013-05-10 16:52:00,81.0,40.0,30.26,SW,218,2.0,2.0,23,0.00,,,0.00,,2013-05-10 23:52:00,
2013-05-10 17:01:00,80.0,38.0,30.26,SSE,148,1.0,3.0,22,0.00,,,0.00,,2013-05-11 00:01:00,
2013-05-10 17:11:00,80.0,38.0,30.26,SSE,148,1.0,3.0,22,0.00,,,0.00,,2013-05-11 00:11:00,
2013-05-10 17:21:00,80.0,37.0,30.26,West,269,2.0,3.0,21,0.00,,,0.00,,2013-05-11 00:21:00,
2013-05-10 17:32:00,80.0,38.0,30.26,ENE,62,1.0,4.0,22,0.00,,,0.00,,2013-05-11 00:32:00,
2013-05-10 17:42:00,80.0,38.0,30.26,ENE,62,1.0,4.0,22,0.00,,,0.00,,2013-05-11 00:42:00,
2013-05-10 17:51:00,80.0,38.0,30.25,West,270,0.0,2.0,22,0.00,,,0.00,,2013-05-11 00:51:00,
2013-05-10 18:01:00,80.0,37.0,30.25,WSW,248,1.0,5.0,21,0.00,,,0.00,,2013-05-11 01:01:00,
2013-05-10 18:11:00,80.0,37.0,30.25,WSW,248,1.0,5.0,21,0.00,,,0.00,,2013-05-11 01:11:00,
2013-05-10 18:21:00,80.0,37.0,30.25,WSW,253,1.0,3.0,21,0.00,,,0.00,,2013-05-11 01:21:00,
2013-05-10 18:31:00,80.0,38.0,30.25,ENE,57,1.0,2.0,22,0.00,,,0.00,,2013-05-11 01:31:00,
2013-05-10 18:42:00,80.0,38.0,30.25,ENE,57,1.0,2.0,22,0.00,,,0.00,,2013-05-11 01:42:00,
2013-05-10 18:52:00,80.0,37.0,30.25,East,101,1.0,3.0,21,0.00,,,0.00,,2013-05-11 01:52:00,
2013-05-10 19:02:00,80.0,37.0,30.25,East,101,1.0,3.0,21,0.00,,,0.00,,2013-05-11 02:02:00,
2013-05-10 19:11:00,80.0,37.0,30.25,East,101,1.0,3.0,21,0.00,,,0.00,,2013-05-11 02:11:00,
2013-05-10 19:21:00,79.0,36.0,30.25,NNE,26,1.0,1.0,21,0.00,,,0.00,,2013-05-11 02:21:00,
2013-05-10 19:32:00,79.0,36.0,30.25,NNE,26,1.0,1.0,21,0.00,,,0.00,,2013-05-11 02:32:00,
2013-05-10 19:42:00,79.0,36.0,30.25,NNE,26,1.0,1.0,21,0.00,,,0.00,,2013-05-11 02:42:00,
2013-05-10 19:52:00,79.0,36.0,30.25,NNE,26,1.0,1.0,21,0.00,,,0.00,,2013-05-11 02:52:00,
2013-05-10 20:01:00,77.0,36.0,30.26,SE,135,1.0,1.0,23,0.00,,,0.00,,2013-05-11 03:01:00,
2013-05-10 20:11:00,77.0,36.0,30.26,SE,135,1.0,1.0,23,0.00,,,0.00,,2013-05-11 03:11:00,
2013-05-10 20:21:00,77.0,37.0,30.27,SSE,158,1.0,1.0,24,0.00,,,0.00,,2013-05-11 03:21:00,
2013-05-10 20:32:00,74.0,39.0,30.27,South,172,0.0,0.0,28,0.00,,,0.00,,2013-05-11 03:32:00,
2013-05-10 20:42:00,74.0,39.0,30.27,South,172,0.0,0.0,28,0.00,,,0.00,,2013-05-11 03:42:00,
2013-05-10 20:53:00,71.0,38.0,30.28,West,270,0.0,1.0,30,0.00,,,0.00,,2013-05-11 03:53:00,
2013-05-10 21:02:00,71.0,38.0,30.28,West,270,0.0,1.0,30,0.00,,,0.00,,2013-05-11 04:02:00,
2013-05-10 21:12:00,71.0,38.0,30.28,West,270,0.0,1.0,30,0.00,,,0.00,,2013-05-11 04:12:00,
2013-05-10 21:23:00,69.0,38.0,30.29,WSW,248,0.0,2.0,32,0.00,,,0.00,,2013-05-11 04:23:00,
2013-05-10 21:32:00,69.0,39.0,30.30,WSW,249,1.0,1.0,33,0.00,,,0.00,,2013-05-11 04:32:00,
2013-05-10 21:43:00,69.0,39.0,30.30,WSW,249,1.0,1.0,33,0.00,,,0.00,,2013-05-11 04:43:00,
2013-05-10 21:52:00,69.0,39.0,30.30,WSW,249,1.0,1.0,33,0.00,,,0.00,,2013-05-11 04:52:00,
2013-05-10 22:02:00,66.0,37.0,30.31,West,270,0.0,0.0,34,0.00,,,0.00,,2013-05-11 05:02:00,
2013-05-10 22:11:00,66.0,37.0,30.31,West,270,0.0,0.0,34,0.00,,,0.00,,2013-05-11 05:11:00,
2013-05-10 22:21:00,66.0,39.0,30.31,West,262,2.0,2.0,37,0.00,,,0.00,,2013-05-11 05:21:00,
2013-05-10 22:32:00,66.0,39.0,30.31,WSW,248,0.0,1.0,37,0.00,,,0.00,,2013-05-11 05:32:00,
2013-05-10 22:42:00,66.0,39.0,30.31,WSW,248,0.0,1.0,37,0.00,,,0.00,,2013-05-11 05:42:00,
2013-05-10 22:52:00,65.0,39.0,30.31,West,270,0.0,1.0,38,0.00,,,0.00,,2013-05-11 05:52:00,
2013-05-10 23:02:00,64.0,39.0,30.31,WSW,248,0.0,1.0,39,0.00,,,0.00,,2013-05-11 06:02:00,
2013-05-10 23:12:00,64.0,39.0,30.31,WSW,248,0.0,1.0,39,0.00,,,0.00,,2013-05-11 06:12:00,
2013-05-10 23:21:00,64.0,39.0,30.31,SSW,209,1.0,1.0,40,0.00,,,0.00,,2013-05-11 06:21:00,
2013-05-10 23:31:00,63.0,39.0,30.32,South,180,0.0,1.0,41,0.00,,,0.00,,2013-05-11 06:31:00,
2013-05-10 23:42:00,63.0,40.0,30.32,West,270,1.0,1.0,43,0.00,,,0.00,,2013-05-11 06:42:00,
2013-05-10 23:52:00,63.0,40.0,30.32,West,270,1.0,1.0,43,0.00,,,0.00,,2013-05-11 06:52:00,